createdAt,value
2022-08-22T00:02:01.097Z,94097.88
2022-08-22T00:07:10.644Z,94092.47
2022-08-22T00:12:20.725Z,94084.22
2022-08-22T00:17:41.124Z,94076.94
2022-08-22T00:22:51.277Z,94066.56
2022-08-22T00:28:01.810Z,94087.84
2022-08-22T00:33:06.709Z,94086.38
2022-08-22T00:38:27.761Z,94062.41
2022-08-22T00:43:32.311Z,94082.50
2022-08-22T00:49:13.056Z,94084.59
2022-08-22T00:54:28.741Z,94073.50
2022-08-22T00:59:45.652Z,94080.72
2022-08-22T01:04:52.687Z,94085.94
2022-08-22T01:10:24.019Z,94090.72
2022-08-22T01:15:29.383Z,94082.66
2022-08-22T01:21:12.285Z,94074.53
2022-08-22T01:26:32.896Z,94067.28
2022-08-22T01:31:52.701Z,94071.31
2022-08-22T01:36:57.637Z,94083.94
2022-08-22T01:42:15.218Z,94069.03
2022-08-22T01:47:21.138Z,94080.00
2022-08-22T01:52:40.223Z,94050.84
2022-08-22T01:57:55.165Z,94086.31
2022-08-22T02:03:16.677Z,94090.56
2022-08-22T02:08:41.163Z,94087.97
2022-08-22T02:13:47.804Z,94086.47
2022-08-22T02:18:55.638Z,94082.94
2022-08-22T02:24:03.835Z,94094.22
2022-08-22T02:29:12.789Z,94091.94
2022-08-22T02:34:24.699Z,94096.66
2022-08-22T02:40:05.961Z,94091.41
2022-08-22T02:45:25.999Z,94092.25
2022-08-22T02:50:44.036Z,94106.06
2022-08-22T02:55:55.069Z,94112.03
2022-08-22T03:01:03.108Z,94108.81
2022-08-22T03:06:35.703Z,94106.88
2022-08-22T03:11:39.021Z,94076.44
2022-08-22T03:16:49.352Z,94093.44
2022-08-22T03:22:09.705Z,94112.88
2022-08-22T03:27:40.651Z,94110.31
2022-08-22T03:32:51.053Z,94091.53
2022-08-22T03:37:58.719Z,94120.78
2022-08-22T03:43:15.861Z,94120.00
2022-08-22T03:48:33.168Z,94127.13
2022-08-22T03:53:59.552Z,94088.44
2022-08-22T03:59:26.221Z,94116.53
2022-08-22T04:04:38.625Z,94118.59
2022-08-22T04:09:53.715Z,94109.34
2022-08-22T04:15:04.458Z,94100.44
2022-08-22T04:20:24.379Z,94100.16
2022-08-22T04:25:46.742Z,94103.75
2022-08-22T04:30:54.652Z,94100.28
2022-08-22T04:36:08.579Z,94107.31
2022-08-22T04:41:32.838Z,94107.38
2022-08-22T04:46:56.862Z,94081.59
2022-08-22T04:52:11.997Z,94107.50
2022-08-22T04:57:14.132Z,94114.97
2022-08-22T05:02:27.946Z,94113.47
2022-08-22T05:07:36.599Z,94118.69
2022-08-22T05:12:42.525Z,94121.38
2022-08-22T05:17:46.322Z,94121.72
2022-08-22T05:22:52.977Z,94098.63
2022-08-22T05:28:16.017Z,94121.03
2022-08-22T05:33:27.631Z,94136.91
2022-08-22T05:38:32.739Z,94134.19
2022-08-22T05:43:38.787Z,94131.47
2022-08-22T05:48:44.078Z,94106.00
2022-08-22T05:53:50.833Z,94139.25
2022-08-22T05:58:54.329Z,94139.63
2022-08-22T06:04:28.586Z,94151.28
2022-08-22T06:09:37.851Z,94153.63
2022-08-22T06:14:54.460Z,94158.31
2022-08-22T06:19:56.468Z,94156.78
2022-08-22T06:25:12.969Z,94160.25
2022-08-22T06:30:16.581Z,94157.53
2022-08-22T06:35:23.670Z,94165.25
2022-08-22T06:40:27.429Z,94134.69
2022-08-22T06:45:32.015Z,94157.81
2022-08-22T06:50:34.084Z,94170.19
2022-08-22T06:55:39.463Z,94171.31
2022-08-22T07:00:42.920Z,94181.34
2022-08-22T07:05:44.987Z,94180.97
2022-08-22T07:10:58.879Z,94185.59
2022-08-22T07:16:06.819Z,94177.78
2022-08-22T07:21:09.741Z,94183.13
2022-08-22T07:26:39.329Z,94181.03
2022-08-22T07:31:46.773Z,94170.84
2022-08-22T07:36:59.261Z,94174.59
2022-08-22T07:42:30.427Z,94142.47
2022-08-22T07:48:04.583Z,94178.25
2022-08-22T07:53:19.554Z,94192.16
2022-08-22T07:58:24.603Z,94189.25
2022-08-22T08:03:29.597Z,94187.91
2022-08-22T08:08:41.074Z,94181.16
2022-08-22T08:13:46.644Z,94174.78
2022-08-22T08:18:50.943Z,94174.84
2022-08-22T08:23:53.810Z,94174.53
2022-08-22T08:28:56.378Z,94180.00
2022-08-22T08:34:05.967Z,94166.81
2022-08-22T08:39:17.053Z,94157.38
2022-08-22T08:44:37.476Z,94155.25
2022-08-22T08:50:16.741Z,94156.78
2022-08-22T08:55:53.936Z,94155.81
2022-08-22T09:00:59.339Z,94145.75
2022-08-22T09:06:04.458Z,94146.28
2022-08-22T09:11:40.300Z,94141.84
2022-08-22T09:17:02.338Z,94137.13
2022-08-22T09:22:14.170Z,94134.97
2022-08-22T09:27:30.065Z,94125.00
2022-08-22T09:32:56.053Z,94127.53
2022-08-22T09:38:23.063Z,94119.78
2022-08-22T09:43:41.876Z,94120.00
2022-08-22T09:48:53.079Z,94123.66
2022-08-22T09:54:31.115Z,94115.94
2022-08-22T09:59:58.130Z,94116.06
2022-08-22T10:05:07.966Z,94117.09
2022-08-22T10:10:40.794Z,94111.13
2022-08-22T10:16:04.728Z,94107.34
2022-08-22T10:21:22.788Z,94088.75
2022-08-22T10:26:51.118Z,94091.44
2022-08-22T10:31:59.284Z,94081.94
2022-08-22T10:37:45.972Z,94081.66
2022-08-22T10:43:10.060Z,94082.91
2022-08-22T10:48:42.094Z,94078.66
2022-08-22T10:54:19.975Z,94074.75
2022-08-22T10:59:44.927Z,94062.25
2022-08-22T11:04:56.056Z,94034.22
2022-08-22T11:10:10.163Z,94043.41
2022-08-22T11:15:36.323Z,94045.22
2022-08-22T11:21:03.136Z,94014.13
2022-08-22T11:26:33.463Z,94035.44
2022-08-22T11:31:51.233Z,94030.72
2022-08-22T11:36:56.995Z,94007.63
2022-08-22T11:42:07.616Z,94017.91
2022-08-22T11:47:13.961Z,93988.75
2022-08-22T11:52:51.531Z,94001.50
2022-08-22T11:58:07.109Z,94007.25
2022-08-22T12:03:16.555Z,94004.75
2022-08-22T12:08:49.679Z,94009.84
2022-08-22T12:14:05.845Z,94006.84
2022-08-22T12:20:14.599Z,94001.00
2022-08-22T12:25:45.664Z,93966.31
2022-08-22T12:31:01.473Z,93988.13
2022-08-22T12:36:25.385Z,93981.44
2022-08-22T12:41:46.622Z,93953.53
2022-08-22T12:47:09.231Z,93969.53
2022-08-22T12:52:46.771Z,93946.50
2022-08-22T12:58:00.380Z,93965.56
2022-08-22T13:03:06.733Z,93939.22
2022-08-22T13:08:33.498Z,93918.81
2022-08-22T13:13:56.705Z,93939.28
2022-08-22T13:19:07.724Z,93937.91
2022-08-22T13:24:22.679Z,93932.94
2022-08-22T13:29:51.874Z,93921.31
2022-08-22T13:34:57.705Z,93911.19
2022-08-22T13:40:04.490Z,93910.16
2022-08-22T13:45:21.392Z,93912.31
2022-08-22T13:50:28.857Z,93894.97
2022-08-22T13:55:43.882Z,93857.38
2022-08-22T14:01:20.838Z,93882.22
2022-08-22T14:06:41.500Z,93877.63
2022-08-22T14:11:51.732Z,93872.00
2022-08-22T14:16:55.642Z,93834.66
2022-08-22T14:22:08.148Z,93851.78
2022-08-22T14:27:31.117Z,93853.03
2022-08-22T14:32:43.328Z,93845.84
2022-08-22T14:37:49.509Z,93832.91
2022-08-22T14:42:55.293Z,93832.66
2022-08-22T14:48:14.523Z,93826.13
2022-08-22T14:53:37.110Z,93826.69
2022-08-22T14:59:03.771Z,93786.09
2022-08-22T15:04:11.189Z,93806.00
2022-08-22T15:16:42.968Z,93802.84
2022-08-22T15:21:45.650Z,93788.72
2022-08-22T15:26:53.098Z,93789.78
2022-08-22T15:32:02.778Z,93785.75
2022-08-22T15:37:25.427Z,93783.19
2022-08-22T15:42:31.065Z,93783.66
2022-08-22T15:47:41.646Z,93782.53
2022-08-22T15:53:14.786Z,93786.78
2022-08-22T15:58:24.480Z,93774.84
2022-08-22T16:03:30.157Z,93754.91
2022-08-22T16:08:48.376Z,93757.94
2022-08-22T16:14:16.288Z,93767.03
2022-08-22T16:19:22.054Z,93771.03
2022-08-22T16:24:24.131Z,93766.53
2022-08-22T16:29:41.479Z,93764.69
2022-08-22T16:34:46.011Z,93758.22
2022-08-22T16:39:52.689Z,93724.50
2022-08-22T16:44:57.726Z,93748.19
2022-08-22T16:50:27.196Z,93749.00
2022-08-22T16:55:29.568Z,93746.53
2022-08-22T17:00:58.041Z,93743.28
2022-08-22T17:06:23.244Z,93735.94
2022-08-22T17:11:37.403Z,93708.81
2022-08-22T17:17:22.790Z,93731.47
2022-08-22T17:22:49.468Z,93729.09
2022-08-22T17:28:12.768Z,93713.84
2022-08-22T17:33:40.805Z,93724.16
2022-08-22T17:38:57.721Z,93691.66
2022-08-22T17:44:35.594Z,93718.16
2022-08-22T17:49:45.303Z,93715.88
2022-08-22T17:54:59.861Z,93712.34
2022-08-22T18:00:19.318Z,93716.47
2022-08-22T18:06:04.652Z,93726.16
2022-08-22T18:11:27.166Z,93695.47
2022-08-22T18:16:35.283Z,93723.41
2022-08-22T18:22:04.464Z,93690.97
2022-08-22T18:27:30.056Z,93720.13
2022-08-22T18:33:15.815Z,93719.31
2022-08-22T18:38:26.438Z,93722.44
2022-08-22T18:43:41.316Z,93729.75
2022-08-22T18:48:59.752Z,93725.31
2022-08-22T18:54:05.218Z,93741.03
2022-08-22T18:59:34.498Z,93742.16
2022-08-22T19:04:57.530Z,93743.41
2022-08-22T19:10:26.873Z,93747.56
2022-08-22T19:15:53.999Z,93757.69
2022-08-22T19:21:34.365Z,93761.88
2022-08-22T19:26:40.205Z,93739.25
2022-08-22T19:31:45.698Z,93760.22
2022-08-22T19:37:30.455Z,93766.63
2022-08-22T19:42:38.335Z,93751.97
2022-08-22T19:47:42.266Z,93751.78
2022-08-22T19:53:05.328Z,93782.59
2022-08-22T19:58:55.054Z,93785.34
2022-08-22T20:04:20.646Z,93779.09
2022-08-22T20:09:25.650Z,93770.50
2022-08-22T20:14:33.158Z,93796.97
2022-08-22T20:20:17.731Z,93804.56
2022-08-22T20:25:44.241Z,93783.94
2022-08-22T20:30:46.932Z,93825.22
2022-08-22T20:35:55.251Z,93843.88
2022-08-22T20:41:12.804Z,93827.09
2022-08-22T20:46:36.849Z,93844.66
2022-08-22T20:51:38.726Z,93846.94
2022-08-22T20:56:52.748Z,93861.13
2022-08-22T21:02:15.393Z,93872.72
2022-08-22T21:07:36.118Z,93842.03
2022-08-22T21:12:37.934Z,93883.91
2022-08-22T21:17:39.928Z,93876.50
2022-08-22T21:22:41.969Z,93887.72
2022-08-22T21:27:47.479Z,93895.56
2022-08-22T21:32:55.057Z,93894.06
2022-08-22T21:37:59.265Z,93895.44
2022-08-22T21:43:10.740Z,93898.28
2022-08-22T21:48:31.490Z,93900.31
2022-08-22T21:53:33.769Z,93908.66
2022-08-22T21:58:37.377Z,93916.78
2022-08-22T22:03:39.685Z,93913.94
2022-08-22T22:08:41.927Z,93929.06
2022-08-22T22:13:44.998Z,93928.03
2022-08-22T22:18:47.004Z,93932.66
2022-08-22T22:23:50.769Z,93931.31
2022-08-22T22:28:53.141Z,93944.25
2022-08-22T22:33:55.518Z,93952.09
2022-08-22T22:38:57.613Z,93946.81
2022-08-22T22:43:59.722Z,93949.53
2022-08-22T22:49:01.636Z,93930.38
2022-08-22T22:54:03.785Z,93954.19
2022-08-22T22:59:13.090Z,93932.59
2022-08-22T23:04:16.698Z,93958.59
2022-08-22T23:09:18.593Z,93953.97
2022-08-22T23:14:20.530Z,93953.38
2022-08-22T23:19:22.652Z,93965.28
2022-08-22T23:24:26.178Z,93939.50
2022-08-22T23:29:28.255Z,93961.28
2022-08-22T23:34:35.583Z,93974.00
2022-08-22T23:39:40.440Z,93953.66
2022-08-22T23:44:45.270Z,93978.63
2022-08-22T23:49:47.359Z,93977.25
2022-08-22T23:54:51.555Z,93981.00
2022-08-22T23:59:58.466Z,93978.78
